Airfield :
LOGIN :

Register | Disclaimer

   EN    FR    IT 

 










Legend :    VFR   Marginal VFR   IFR   Intensive IFR   Very Intensive IFR
Visi :
Ceiling :
>= 8 km
>= 3000ft
5 to 8 km
1000 to 3000 ft
1500m to 5 km
500 to 1000 ft
800 to 1500m
200 to 500 ft
< 800m
< 200 ft
Symbols :   Thunderstorms  Fog  Heavy snow  Heavy precipitations  Wind > 20 kt
SIGMETs :     Misc.  Thunderstorms  Icing  Turbulence  Mountain Waves  Volcanic Ashes







- Airport Elevation : 220 ft
- IATA code : CWL
- Download approach charts


EGFF - Cardiff Rhoose

CURRENT METAR :
  • 222350Z AUTO 23006KT 9999 BKN022 OVC028 08/07 Q1018

EXPIRED METARs :
  • 222320Z AUTO 23004KT 200V270 9999 OVC027 08/07 Q1018
  • 222250Z AUTO 24007KT 9999 OVC028 08/07 Q1018
  • 222220Z AUTO 26009KT 9999 FEW013 OVC028 08/07 Q1018
  • 222150Z AUTO 26011KT 9999 OVC031 08/07 Q1018
  • 222120Z AUTO 26010KT 9999 SCT013 BKN033 08/07 Q1018

TAF TAF EGFF
Valid from the 23 at 00:00 until the 24 at 00:00 UTC


222257Z 2300/2324 25010KT 9999 SCT030
BECMG 2300/2303 17007KT
TEMPO 2300/2302 BKN012
TEMPO 2302/2317 6000 -RA BKN008
BECMG 2306/2309 23014KT
PROB30
TEMPO 2306/2309 0800 RADZ FG BKN001
TEMPO 2307/2324 25017G27KT
PROB30
TEMPO 2314/2317 0800 RADZ FG BKN001
ATIS : +44 1446 729 319
No reported NOTAMs for that airfield.
1 SIGMET reported for the London FIR (EGTT) :
 
Severe mountain waves
EGTT SIGMET 03 VALID 222300/230300 EGRR
EGTT LONDON FIR SEV MTW FCST WI N5500 W00000 - N5200 W00015 - N5200 W00315 - N5500 W00300 - N5500 W00000 FL040/250 STNR NC=



MET'MAP, your aeronautical weather chart ! - Copyright ORBIFLY December 2007 - Disclaimer

ORBIFLY MET'MAP TEAM :

Programming & Development : Alexandra Zaïnal
Concept & Development : Baudouin d'Aumeries
Co-Development & Prog : Marc-Olivier Méhu
Technical & hardware support : Manuel Goepfert

Contact : metmap@orbifly.com




SOURCES & CREDITS :

   NOAA